| time (UTC) | temp F | wind direction | speed MPH | gust MPH | rain 1hr in | rain 24hr in | rain mn in | humidity % | barometer mb |
| 20260413134529 | 71 | 217 | 3.0 | 7.0 | 0.00 | 0.00 | 0.00 | 76 | 1030.3 |
| 20260413133627 | 70 | 222 | 5.0 | 7.0 | 0.00 | 0.00 | 0.00 | 76 | 1030.3 |
| 20260413133527 | 70 | 211 | 5.0 | 8.0 | 0.00 | 0.00 | 0.00 | 76 | 1030.2 |
| 20260413132528 | 70 | 241 | 4.0 | 8.0 | 0.00 | 0.00 | 0.00 | 77 | 1030.2 |
| 20260413131528 | 70 | 226 | 2.0 | 7.0 | 0.00 | 0.00 | 0.00 | 80 | 1030.3 |
| 20260413125628 | 69 | 227 | 7.0 | 9.0 | 0.00 | 0.00 | 0.00 | 83 | 1030.2 |
| 20260413123628 | 68 | 228 | 4.0 | 7.0 | 0.00 | 0.00 | 0.00 | 86 | 1030.0 |
| 20260413122628 | 68 | 207 | 4.0 | 8.0 | 0.00 | 0.00 | 0.00 | 89 | 1030.0 |
| 20260413120628 | 67 | 225 | 1.0 | 3.0 | 0.00 | 0.00 | 0.00 | 93 | 1030.0 |
| 20260413115630 | 66 | 229 | 2.0 | 4.0 | 0.00 | 0.00 | 0.00 | 95 | 1030.0 |
| 20260413114627 | 65 | 202 | 0.0 | 1.0 | 0.00 | 0.00 | 0.00 | 96 | 1029.9 |
| 20260413112644 | 64 | 225 | 0.0 | 1.0 | 0.00 | 0.00 | 0.00 | 96 | 1029.5 |
| 20260413110826 | 63 | 206 | 0.0 | 2.0 | 0.00 | 0.00 | 0.00 | 95 | 1029.2 |
| 20260413105828 | 63 | 202 | 2.0 | 3.0 | 0.00 | 0.00 | 0.00 | 95 | 1029.2 |
| 20260413104828 | 63 | 180 | 2.0 | 3.0 | 0.00 | 0.00 | 0.00 | 95 | 1029.1 |
| 20260413103829 | 63 | 180 | 0.0 | 2.0 | 0.00 | 0.00 | 0.00 | 94 | 1028.9 |
| 20260413102828 | 63 | 180 | 1.0 | 2.0 | 0.00 | 0.00 | 0.00 | 94 | 1028.9 |
| 20260413102726 | 63 | 180 | 1.0 | 2.0 | 0.00 | 0.00 | 0.00 | 94 | 1028.9 |
| 20260413100827 | 63 | 180 | 2.0 | 3.0 | 0.00 | 0.00 | 0.00 | 94 | 1028.9 |
| 20260413095827 | 63 | 180 | 0.0 | 1.0 | 0.00 | 0.00 | 0.00 | 94 | 1028.9 |
| 20260413094927 | 63 | 180 | 0.0 | 1.0 | 0.00 | 0.00 | 0.00 | 94 | 1028.7 |
| 20260413093927 | 64 | 202 | 1.0 | 4.0 | 0.00 | 0.00 | 0.00 | 94 | 1028.7 |
| 20260413084929 | 64 | 180 | 2.0 | 5.0 | 0.00 | 0.00 | 0.00 | 94 | 1028.4 |
| 20260413083927 | 64 | 185 | 2.0 | 4.0 | 0.00 | 0.00 | 0.00 | 94 | 1028.3 |
| 20260413081929 | 64 | 179 | 3.0 | 5.0 | 0.00 | 0.00 | 0.00 | 94 | 1028.4 |
| 20260413080930 | 64 | 175 | 1.0 | 3.0 | 0.00 | 0.00 | 0.00 | 94 | 1028.4 |
| 20260413075928 | 64 | 197 | 2.0 | 5.0 | 0.00 | 0.00 | 0.00 | 94 | 1028.4 |
| 20260413075027 | 64 | 176 | 2.0 | 5.0 | 0.00 | 0.00 | 0.00 | 94 | 1028.6 |
| 20260413074028 | 64 | 186 | 1.0 | 5.0 | 0.00 | 0.00 | 0.00 | 94 | 1028.6 |
| 20260413073045 | 64 | 178 | 4.0 | 7.0 | 0.00 | 0.00 | 0.00 | 94 | 1028.7 |
| 20260413072127 | 64 | 181 | 2.0 | 4.0 | 0.00 | 0.00 | 0.00 | 94 | 1028.7 |
| 20260413071127 | 64 | 180 | 2.0 | 5.0 | 0.00 | 0.00 | 0.00 | 93 | 1028.7 |
| 20260413070127 | 64 | 178 | 3.0 | 6.0 | 0.00 | 0.00 | 0.00 | 94 | 1028.7 |
| 20260413065028 | 64 | 162 | 2.0 | 5.0 | 0.00 | 0.00 | 0.00 | 94 | 1028.7 |
| 20260413064127 | 64 | 178 | 3.0 | 6.0 | 0.00 | 0.00 | 0.00 | 94 | 1028.7 |
| 20260413062226 | 64 | 186 | 2.0 | 6.0 | 0.00 | 0.00 | 0.00 | 94 | 1028.9 |
| 20260413061229 | 64 | 178 | 2.0 | 7.0 | 0.00 | 0.00 | 0.00 | 93 | 1029.0 |
| 20260413060227 | 64 | 170 | 2.0 | 4.0 | 0.00 | 0.00 | 0.00 | 94 | 1029.2 |
| 20260413055227 | 64 | 166 | 2.0 | 4.0 | 0.00 | 0.00 | 0.00 | 94 | 1029.4 |
| 20260413054226 | 64 | 180 | 1.0 | 5.0 | 0.00 | 0.00 | 0.00 | 94 | 1029.6 |
| 20260413053145 | 64 | 180 | 1.0 | 3.0 | 0.00 | 0.00 | 0.00 | 93 | 1029.7 |
| 20260413052229 | 63 | 156 | 2.0 | 4.0 | 0.00 | 0.00 | 0.00 | 93 | 1029.8 |
| 20260413051230 | 63 | 164 | 2.0 | 4.0 | 0.00 | 0.00 | 0.00 | 93 | 1029.9 |
| 20260413050327 | 63 | 177 | 3.0 | 6.0 | 0.00 | 0.00 | 0.00 | 94 | 1030.0 |
| 20260413045327 | 63 | 157 | 2.0 | 4.0 | 0.00 | 0.00 | 0.00 | 94 | 1030.0 |
| 20260413044327 | 63 | 154 | 2.0 | 5.0 | 0.00 | 0.00 | 0.00 | 93 | 1030.0 |
| 20260413043329 | 63 | 135 | 1.0 | 4.0 | 0.00 | 0.00 | 0.00 | 94 | 1030.0 |
| 20260413040428 | 63 | 135 | 0.0 | 3.0 | 0.00 | 0.00 | 0.00 | 93 | 1030.2 |
| 20260413035430 | 63 | 135 | 1.0 | 3.0 | 0.00 | 0.00 | 0.00 | 93 | 1030.1 |
| 20260413034430 | 63 | 161 | 0.0 | 1.0 | 0.00 | 0.00 | 0.00 | 93 | 1030.2 |
| 20260413033432 | 63 | 141 | 2.0 | 4.0 | 0.00 | 0.00 | 0.00 | 93 | 1030.2 |
| 20260413032429 | 63 | 131 | 1.0 | 3.0 | 0.00 | 0.00 | 0.00 | 92 | 1030.2 |
| 20260413031430 | 63 | 127 | 3.0 | 4.0 | 0.00 | 0.00 | 0.00 | 92 | 1030.3 |
| 20260413030430 | 63 | 110 | 2.0 | 3.0 | 0.00 | 0.00 | 0.00 | 92 | 1030.5 |
| 20260413025430 | 63 | 135 | 2.0 | 3.0 | 0.00 | 0.00 | 0.00 | 91 | 1030.3 |
| 20260413024430 | 63 | 117 | 2.0 | 3.0 | 0.00 | 0.00 | 0.00 | 90 | 1030.7 |
| 20260413023429 | 63 | 120 | 1.0 | 3.0 | 0.00 | 0.00 | 0.00 | 90 | 1030.5 |
| 20260413022431 | 63 | 122 | 1.0 | 4.0 | 0.00 | 0.00 | 0.00 | 89 | 1030.7 |
| 20260413021431 | 63 | 142 | 1.0 | 5.0 | 0.00 | 0.00 | 0.00 | 89 | 1030.7 |
| 20260413020432 | 64 | 114 | 2.0 | 4.0 | 0.00 | 0.00 | 0.00 | 88 | 1030.7 |
| 20260413014429 | 64 | 123 | 2.0 | 5.0 | 0.00 | 0.00 | 0.00 | 88 | 1030.7 |
| 20260413012430 | 63 | 140 | 1.0 | 3.0 | 0.00 | 0.00 | 0.00 | 89 | 1030.7 |
| 20260413011431 | 63 | 131 | 2.0 | 5.0 | 0.00 | 0.00 | 0.00 | 89 | 1030.5 |
| 20260413010529 | 63 | 113 | 2.0 | 4.0 | 0.00 | 0.00 | 0.00 | 89 | 1030.5 |
| 20260413005533 | 63 | 126 | 3.0 | 5.0 | 0.00 | 0.00 | 0.00 | 89 | 1030.4 |
| 20260413003631 | 63 | 125 | 2.0 | 5.0 | 0.00 | 0.00 | 0.00 | 89 | 1030.2 |
| 20260413002631 | 64 | 134 | 1.0 | 3.0 | 0.00 | 0.00 | 0.00 | 88 | 1030.2 |
| 20260413001630 | 64 | 135 | 4.0 | 5.0 | 0.00 | 0.00 | 0.00 | 87 | 1030.2 |
| 20260413001548 | 64 | 113 | 2.0 | 4.0 | 0.00 | 0.00 | 0.00 | 87 | 1030.1 |
| 20260413000531 | 64 | 109 | 3.0 | 6.0 | 0.00 | 0.00 | 0.00 | 87 | 1030.1 |
| 20260412235629 | 64 | 128 | 3.0 | 5.0 | 0.00 | 0.00 | 0.00 | 86 | 1030.3 |
| 20260412234629 | 64 | 127 | 1.0 | 3.0 | 0.00 | 0.00 | 0.00 | 86 | 1030.0 |
| 20260412232632 | 65 | 126 | 2.0 | 7.0 | 0.00 | 0.00 | 0.00 | 84 | 1030.0 |
| 20260412231630 | 65 | 117 | 4.0 | 6.0 | 0.00 | 0.00 | 0.00 | 84 | 1029.9 |
| 20260412230631 | 65 | 106 | 4.0 | 6.0 | 0.00 | 0.00 | 0.00 | 83 | 1029.9 |
| 20260412225630 | 65 | 121 | 4.0 | 7.0 | 0.00 | 0.00 | 0.00 | 83 | 1030.0 |
| 20260412224630 | 65 | 130 | 3.0 | 4.0 | 0.00 | 0.00 | 0.00 | 83 | 1030.0 |
| 20260412224530 | 65 | 128 | 3.0 | 4.0 | 0.00 | 0.00 | 0.00 | 82 | 1030.0 |
| 20260412223532 | 65 | 119 | 4.0 | 7.0 | 0.00 | 0.00 | 0.00 | 81 | 1030.1 |
| 20260412222629 | 66 | 118 | 4.0 | 7.0 | 0.00 | 0.00 | 0.00 | 80 | 1030.1 |
| 20260412221629 | 66 | 119 | 5.0 | 8.0 | 0.00 | 0.00 | 0.00 | 80 | 1030.2 |
| 20260412215630 | 67 | 115 | 4.0 | 7.0 | 0.00 | 0.00 | 0.00 | 79 | 1030.1 |
| 20260412214629 | 67 | 99 | 4.0 | 7.0 | 0.00 | 0.00 | 0.00 | 78 | 1030.0 |
| 20260412213728 | 67 | 119 | 4.0 | 7.0 | 0.00 | 0.00 | 0.00 | 77 | 1030.1 |
| 20260412212730 | 67 | 113 | 4.0 | 7.0 | 0.00 | 0.00 | 0.00 | 77 | 1030.2 |
| 20260412211729 | 67 | 125 | 5.0 | 8.0 | 0.00 | 0.00 | 0.00 | 76 | 1030.0 |
| 20260412210732 | 67 | 112 | 4.0 | 7.0 | 0.00 | 0.00 | 0.00 | 77 | 1030.3 |
| 20260412205745 | 68 | 115 | 4.0 | 6.0 | 0.00 | 0.00 | 0.00 | 76 | 1030.3 |
| 20260412204829 | 68 | 108 | 5.0 | 7.0 | 0.00 | 0.00 | 0.00 | 76 | 1030.3 |
| 20260412203832 | 68 | 108 | 4.0 | 8.0 | 0.00 | 0.00 | 0.00 | 77 | 1030.5 |
| 20260412202832 | 68 | 114 | 5.0 | 8.0 | 0.00 | 0.00 | 0.00 | 77 | 1030.5 |
| 20260412201848 | 69 | 117 | 6.0 | 9.0 | 0.00 | 0.00 | 0.00 | 74 | 1030.5 |
| 20260412200830 | 69 | 110 | 2.0 | 4.0 | 0.00 | 0.00 | 0.00 | 74 | 1030.5 |
| 20260412195830 | 68 | 92 | 4.0 | 8.0 | 0.00 | 0.00 | 0.00 | 76 | 1030.5 |
| 20260412194830 | 68 | 110 | 5.0 | 9.0 | 0.00 | 0.00 | 0.00 | 75 | 1030.8 |
| 20260412193829 | 68 | 114 | 3.0 | 7.0 | 0.00 | 0.00 | 0.00 | 75 | 1030.7 |
| 20260412192831 | 69 | 106 | 4.0 | 6.0 | 0.00 | 0.00 | 0.00 | 73 | 1030.8 |
| 20260412191930 | 70 | 117 | 4.0 | 7.0 | 0.00 | 0.00 | 0.00 | 73 | 1030.8 |
| 20260412190929 | 69 | 107 | 1.0 | 5.0 | 0.00 | 0.00 | 0.00 | 74 | 1031.0 |
| 20260412185933 | 69 | 103 | 4.0 | 7.0 | 0.00 | 0.00 | 0.00 | 73 | 1031.1 |
| 20260412184930 | 70 | 86 | 4.0 | 9.0 | 0.00 | 0.00 | 0.00 | 73 | 1031.1 |
| 20260412184029 | 69 | 125 | 4.0 | 7.0 | 0.00 | 0.00 | 0.00 | 75 | 1031.1 |
| 20260412183030 | 68 | 110 | 6.0 | 12.0 | 0.00 | 0.00 | 0.00 | 76 | 1031.1 |
| 20260412182030 | 69 | 99 | 8.0 | 12.0 | 0.00 | 0.00 | 0.00 | 76 | 1031.3 |
| 20260412181030 | 69 | 107 | 6.0 | 11.0 | 0.00 | 0.00 | 0.00 | 76 | 1031.2 |
| 20260412180029 | 69 | 100 | 5.0 | 9.0 | 0.00 | 0.00 | 0.00 | 75 | 1031.3 |
| 20260412175128 | 70 | 107 | 5.0 | 10.0 | 0.00 | 0.00 | 0.00 | 74 | 1031.3 |
| 20260412174130 | 70 | 109 | 3.0 | 7.0 | 0.00 | 0.00 | 0.00 | 74 | 1031.1 |
| 20260412173130 | 69 | 93 | 4.0 | 7.0 | 0.00 | 0.00 | 0.00 | 74 | 1031.0 |
| 20260412172229 | 69 | 129 | 3.0 | 9.0 | 0.00 | 0.00 | 0.00 | 75 | 1031.3 |
| 20260412170229 | 68 | 115 | 2.0 | 4.0 | 0.00 | 0.00 | 0.00 | 77 | 1031.6 |
| 20260412165130 | 69 | 117 | 7.0 | 10.0 | 0.00 | 0.00 | 0.00 | 75 | 1031.5 |
| 20260412164132 | 68 | 119 | 4.0 | 8.0 | 0.00 | 0.00 | 0.00 | 77 | 1031.4 |
| 20260412163229 | 68 | 99 | 8.0 | 11.0 | 0.00 | 0.00 | 0.00 | 77 | 1031.4 |
| 20260412162231 | 69 | 115 | 7.0 | 10.0 | 0.00 | 0.00 | 0.00 | 75 | 1031.4 |
| 20260412161229 | 69 | 112 | 6.0 | 12.0 | 0.00 | 0.00 | 0.00 | 75 | 1031.3 |
| 20260412155229 | 69 | 109 | 6.0 | 10.0 | 0.00 | 0.00 | 0.00 | 75 | 1031.3 |
| 20260412154231 | 69 | 108 | 3.0 | 5.0 | 0.00 | 0.00 | 0.00 | 75 | 1031.3 |
| 20260412153329 | 69 | 129 | 2.0 | 5.0 | 0.00 | 0.00 | 0.00 | 75 | 1031.4 |
| 20260412152330 | 69 | 99 | 5.0 | 9.0 | 0.00 | 0.00 | 0.00 | 74 | 1031.4 |
| 20260412151429 | 69 | 101 | 4.0 | 8.0 | 0.00 | 0.00 | 0.00 | 74 | 1031.4 |
| 20260412150431 | 69 | 93 | 6.0 | 11.0 | 0.00 | 0.00 | 0.00 | 73 | 1031.5 |
| 20260412145430 | 69 | 71 | 3.0 | 9.0 | 0.00 | 0.00 | 0.00 | 73 | 1031.3 |
| 20260412143430 | 68 | 94 | 8.0 | 12.0 | 0.00 | 0.00 | 0.00 | 74 | 1031.3 |
| 20260412142430 | 68 | 87 | 3.0 | 7.0 | 0.00 | 0.00 | 0.00 | 75 | 1031.4 |
| 20260412141447 | 68 | 92 | 5.0 | 10.0 | 0.00 | 0.00 | 0.00 | 76 | 1031.2 |
| 20260412140530 | 68 | 94 | 7.0 | 11.0 | 0.00 | 0.00 | 0.00 | 75 | 1031.0 |
| 20260412135531 | 68 | 90 | 5.0 | 9.0 | 0.00 | 0.00 | 0.00 | 74 | 1031.2 |